sensor_id;sensor_type;location;lat;lon;timestamp;pressure;altitude;pressure_sealevel;temperature;humidity
34979;BME280;21185;50.978;13.720;2023-08-12T00:03:34;98717.69;;;20.09;61.94
34979;BME280;21185;50.978;13.720;2023-08-12T00:08:36;98721.34;;;20.08;61.74
34979;BME280;21185;50.978;13.720;2023-08-12T00:13:38;98715.28;;;20.07;61.86
34979;BME280;21185;50.978;13.720;2023-08-12T00:18:40;98718.94;;;20.06;62.15
34979;BME280;21185;50.978;13.720;2023-08-12T00:23:42;98724.19;;;20.06;62.12
34979;BME280;21185;50.978;13.720;2023-08-12T00:28:48;98714.91;;;20.03;62.08
34979;BME280;21185;50.978;13.720;2023-08-12T00:33:52;98722.81;;;20.03;62.39
34979;BME280;21185;50.978;13.720;2023-08-12T00:38:54;98717.75;;;20.02;62.33
34979;BME280;21185;50.978;13.720;2023-08-12T00:43:57;98712.69;;;20.00;62.44
34979;BME280;21185;50.978;13.720;2023-08-12T00:48:59;98701.56;;;19.98;62.74
34979;BME280;21185;50.978;13.720;2023-08-12T00:54:05;98703.38;;;19.98;62.75
34979;BME280;21185;50.978;13.720;2023-08-12T00:59:10;98704.41;;;19.97;62.94
34979;BME280;21185;50.978;13.720;2023-08-12T01:04:13;98709.28;;;19.93;62.91
34979;BME280;21185;50.978;13.720;2023-08-12T01:09:15;98698.75;;;19.93;62.92
34979;BME280;21185;50.978;13.720;2023-08-12T01:14:38;98699.97;;;19.91;63.23
34979;BME280;21185;50.978;13.720;2023-08-12T01:19:46;98705.28;;;19.84;63.08
34979;BME280;21185;50.978;13.720;2023-08-12T01:24:51;98699.63;;;19.81;63.25
34979;BME280;21185;50.978;13.720;2023-08-12T01:29:53;98700.84;;;19.78;63.36
34979;BME280;21185;50.978;13.720;2023-08-12T01:35:17;98692.75;;;19.80;63.60
34979;BME280;21185;50.978;13.720;2023-08-12T01:40:22;98695.16;;;19.81;63.14
34979;BME280;21185;50.978;13.720;2023-08-12T01:45:24;98680.97;;;19.82;63.38
34979;BME280;21185;50.978;13.720;2023-08-12T01:50:26;98676.75;;;19.81;63.73
34979;BME280;21185;50.978;13.720;2023-08-12T01:55:27;98676.94;;;19.80;63.65
34979;BME280;21185;50.978;13.720;2023-08-12T02:00:30;98670.28;;;19.77;63.74
34979;BME280;21185;50.978;13.720;2023-08-12T02:05:33;98665.22;;;19.76;63.88
34979;BME280;21185;50.978;13.720;2023-08-12T02:10:35;98666.47;;;19.73;64.25
34979;BME280;21185;50.978;13.720;2023-08-12T02:15:37;98664.25;;;19.70;64.36
34979;BME280;21185;50.978;13.720;2023-08-12T02:20:47;98660.41;;;19.66;64.49
34979;BME280;21185;50.978;13.720;2023-08-12T02:25:52;98652.94;;;19.63;64.46
34979;BME280;21185;50.978;13.720;2023-08-12T02:30:56;98645.47;;;19.60;64.47
34979;BME280;21185;50.978;13.720;2023-08-12T02:35:58;98643.25;;;19.57;64.47
34979;BME280;21185;50.978;13.720;2023-08-12T02:41:00;98638.63;;;19.52;64.39
34979;BME280;21185;50.978;13.720;2023-08-12T02:46:03;98630.53;;;19.47;64.43
34979;BME280;21185;50.978;13.720;2023-08-12T02:51:05;98631.16;;;19.42;64.70
34979;BME280;21185;50.978;13.720;2023-08-12T02:56:07;98626.09;;;19.41;64.41
34979;BME280;21185;50.978;13.720;2023-08-12T03:01:11;98622.06;;;19.38;64.61
34979;BME280;21185;50.978;13.720;2023-08-12T03:06:13;98628.75;;;19.34;64.55
34979;BME280;21185;50.978;13.720;2023-08-12T03:11:15;98629.38;;;19.30;64.72
34979;BME280;21185;50.978;13.720;2023-08-12T03:16:18;98629.00;;;19.26;64.69
34979;BME280;21185;50.978;13.720;2023-08-12T03:21:21;98632.63;;;19.25;64.88
34979;BME280;21185;50.978;13.720;2023-08-12T03:26:25;98628.59;;;19.23;65.10
34979;BME280;21185;50.978;13.720;2023-08-12T03:31:31;98635.09;;;19.20;64.93
34979;BME280;21185;50.978;13.720;2023-08-12T03:36:34;98626.59;;;19.18;64.75
34979;BME280;21185;50.978;13.720;2023-08-12T03:41:36;98622.34;;;19.17;64.85
34979;BME280;21185;50.978;13.720;2023-08-12T03:46:40;98615.69;;;19.15;65.03
34979;BME280;21185;50.978;13.720;2023-08-12T03:51:43;98617.72;;;19.13;65.23
34979;BME280;21185;50.978;13.720;2023-08-12T03:56:45;98610.03;;;19.11;65.46
34979;BME280;21185;50.978;13.720;2023-08-12T04:01:47;98605.78;;;19.10;65.52
34979;BME280;21185;50.978;13.720;2023-08-12T04:06:50;98608.44;;;19.10;65.69
34979;BME280;21185;50.978;13.720;2023-08-12T04:11:53;98609.22;;;19.11;65.41
34979;BME280;21185;50.978;13.720;2023-08-12T04:16:55;98610.03;;;19.11;65.63
34979;BME280;21185;50.978;13.720;2023-08-12T04:21:57;98608.81;;;19.14;65.95
34979;BME280;21185;50.978;13.720;2023-08-12T04:26:59;98607.59;;;19.16;65.60
34979;BME280;21185;50.978;13.720;2023-08-12T04:32:02;98603.13;;;19.17;65.73
34979;BME280;21185;50.978;13.720;2023-08-12T04:37:05;98599.88;;;19.21;66.03
34979;BME280;21185;50.978;13.720;2023-08-12T04:42:07;98601.88;;;19.26;66.08
34979;BME280;21185;50.978;13.720;2023-08-12T04:47:09;98599.00;;;19.34;66.14
34979;BME280;21185;50.978;13.720;2023-08-12T04:52:12;98608.47;;;19.41;66.20
34979;BME280;21185;50.978;13.720;2023-08-12T04:57:15;98597.75;;;19.43;66.63
34979;BME280;21185;50.978;13.720;2023-08-12T05:02:17;98586.59;;;19.48;66.73
34979;BME280;21185;50.978;13.720;2023-08-12T05:07:22;98592.44;;;19.56;66.79
34979;BME280;21185;50.978;13.720;2023-08-12T05:12:24;98591.59;;;19.62;66.88
34979;BME280;21185;50.978;13.720;2023-08-12T05:17:26;98596.81;;;19.69;66.88
34979;BME280;21185;50.978;13.720;2023-08-12T05:22:29;98592.53;;;19.75;67.02
34979;BME280;21185;50.978;13.720;2023-08-12T05:27:31;98592.84;;;19.85;66.84
34979;BME280;21185;50.978;13.720;2023-08-12T05:32:33;98593.19;;;19.95;67.05
34979;BME280;21185;50.978;13.720;2023-08-12T05:37:35;98591.31;;;20.02;67.19
34979;BME280;21185;50.978;13.720;2023-08-12T05:42:37;98583.34;;;20.09;67.09
34979;BME280;21185;50.978;13.720;2023-08-12T05:47:39;98583.22;;;20.22;67.22
34979;BME280;21185;50.978;13.720;2023-08-12T05:52:41;98588.59;;;20.33;67.39
34979;BME280;21185;50.978;13.720;2023-08-12T05:57:43;98592.16;;;20.46;67.46
34979;BME280;21185;50.978;13.720;2023-08-12T06:02:44;98584.78;;;20.54;67.33
34979;BME280;21185;50.978;13.720;2023-08-12T06:07:46;98588.31;;;20.66;67.45
34979;BME280;21185;50.978;13.720;2023-08-12T06:12:48;98572.91;;;20.82;67.25
34979;BME280;21185;50.978;13.720;2023-08-12T06:17:50;98577.34;;;20.99;67.17
34979;BME280;21185;50.978;13.720;2023-08-12T06:22:52;98572.28;;;21.16;67.27
34979;BME280;21185;50.978;13.720;2023-08-12T06:27:54;98562.38;;;21.30;67.03
34979;BME280;21185;50.978;13.720;2023-08-12T06:32:57;98563.13;;;21.49;67.09
34979;BME280;21185;50.978;13.720;2023-08-12T06:37:59;98572.00;;;21.66;67.07
34979;BME280;21185;50.978;13.720;2023-08-12T06:43:01;98565.72;;;21.67;66.78
34979;BME280;21185;50.978;13.720;2023-08-12T06:48:03;98563.75;;;21.62;67.01
34979;BME280;21185;50.978;13.720;2023-08-12T06:53:05;98566.25;;;21.57;67.36
34979;BME280;21185;50.978;13.720;2023-08-12T06:58:07;98563.63;;;21.57;67.34
34979;BME280;21185;50.978;13.720;2023-08-12T07:03:09;98554.88;;;21.57;67.28
34979;BME280;21185;50.978;13.720;2023-08-12T07:08:12;98557.44;;;21.75;67.20
34979;BME280;21185;50.978;13.720;2023-08-12T07:13:14;98553.13;;;21.92;67.03
34979;BME280;21185;50.978;13.720;2023-08-12T07:18:16;98563.16;;;22.14;66.89
34979;BME280;21185;50.978;13.720;2023-08-12T07:23:18;98555.91;;;22.44;66.85
34979;BME280;21185;50.978;13.720;2023-08-12T07:28:20;98552.63;;;22.77;66.52
34979;BME280;21185;50.978;13.720;2023-08-12T07:33:22;98556.88;;;22.90;66.92
34979;BME280;21185;50.978;13.720;2023-08-12T07:38:24;98545.91;;;23.10;66.79
34979;BME280;21185;50.978;13.720;2023-08-12T07:43:26;98544.59;;;23.41;66.19
34979;BME280;21185;50.978;13.720;2023-08-12T07:48:28;98548.53;;;23.67;66.04
34979;BME280;21185;50.978;13.720;2023-08-12T07:53:30;98545.72;;;23.90;66.08
34979;BME280;21185;50.978;13.720;2023-08-12T07:58:32;98534.53;;;24.05;65.86
34979;BME280;21185;50.978;13.720;2023-08-12T08:03:34;98534.53;;;24.21;65.82
34979;BME280;21185;50.978;13.720;2023-08-12T08:08:36;98533.97;;;24.36;65.70
34979;BME280;21185;50.978;13.720;2023-08-12T08:13:38;98526.75;;;24.53;65.72
34979;BME280;21185;50.978;13.720;2023-08-12T08:18:40;98528.81;;;24.68;65.56
34979;BME280;21185;50.978;13.720;2023-08-12T08:23:42;98525.28;;;24.84;65.39
34979;BME280;21185;50.978;13.720;2023-08-12T08:28:44;98525.00;;;25.03;65.64
34979;BME280;21185;50.978;13.720;2023-08-12T08:33:46;98524.66;;;25.21;64.93
34979;BME280;21185;50.978;13.720;2023-08-12T08:38:49;98526.16;;;25.39;64.44
34979;BME280;21185;50.978;13.720;2023-08-12T08:43:53;98517.50;;;25.54;64.17
34979;BME280;21185;50.978;13.720;2023-08-12T08:48:59;98520.06;;;25.70;63.27
34979;BME280;21185;50.978;13.720;2023-08-12T08:54:02;98520.41;;;25.79;62.48
34979;BME280;21185;50.978;13.720;2023-08-12T08:59:06;98523.09;;;25.84;59.93
34979;BME280;21185;50.978;13.720;2023-08-12T09:04:08;98510.13;;;25.93;59.12
34979;BME280;21185;50.978;13.720;2023-08-12T09:09:14;98516.59;;;26.07;58.19
34979;BME280;21185;50.978;13.720;2023-08-12T09:14:19;98503.63;;;26.21;57.46
34979;BME280;21185;50.978;13.720;2023-08-12T09:19:22;98511.47;;;26.37;56.95
34979;BME280;21185;50.978;13.720;2023-08-12T09:24:27;98499.28;;;26.46;55.67
34979;BME280;21185;50.978;13.720;2023-08-12T09:29:33;98491.25;;;26.36;55.03
34979;BME280;21185;50.978;13.720;2023-08-12T09:34:35;98497.03;;;26.28;55.04
34979;BME280;21185;50.978;13.720;2023-08-12T09:39:38;98492.56;;;26.34;54.73
34979;BME280;21185;50.978;13.720;2023-08-12T09:44:41;98479.88;;;26.56;53.66
34979;BME280;21185;50.978;13.720;2023-08-12T09:49:43;98472.53;;;26.84;52.99
34979;BME280;21185;50.978;13.720;2023-08-12T09:54:45;98470.13;;;26.82;52.43
34979;BME280;21185;50.978;13.720;2023-08-12T09:59:49;98482.34;;;26.73;52.66
34979;BME280;21185;50.978;13.720;2023-08-12T10:04:54;98482.34;;;26.73;52.66
34979;BME280;21185;50.978;13.720;2023-08-12T10:09:58;98476.47;;;26.71;52.24
34979;BME280;21185;50.978;13.720;2023-08-12T10:15:00;98475.38;;;26.62;52.11
34979;BME280;21185;50.978;13.720;2023-08-12T10:20:04;98467.91;;;26.59;52.40
34979;BME280;21185;50.978;13.720;2023-08-12T10:25:07;98464.97;;;26.55;52.16
34979;BME280;21185;50.978;13.720;2023-08-12T10:30:13;98475.34;;;26.52;52.50
34979;BME280;21185;50.978;13.720;2023-08-12T10:35:15;98467.84;;;26.43;52.03
34979;BME280;21185;50.978;13.720;2023-08-12T10:40:22;98458.78;;;26.34;51.31
34979;BME280;21185;50.978;13.720;2023-08-12T10:45:44;98461.38;;;26.29;51.23
34979;BME280;21185;50.978;13.720;2023-08-12T10:50:51;98456.56;;;26.26;51.02
34979;BME280;21185;50.978;13.720;2023-08-12T10:56:01;98460.91;;;26.32;51.51
34979;BME280;21185;50.978;13.720;2023-08-12T11:01:15;98450.28;;;26.37;51.66
34979;BME280;21185;50.978;13.720;2023-08-12T11:06:19;98444.16;;;26.42;51.23
34979;BME280;21185;50.978;13.720;2023-08-12T11:11:22;98444.44;;;26.45;51.26
34979;BME280;21185;50.978;13.720;2023-08-12T11:16:37;98441.81;;;26.51;50.47
34979;BME280;21185;50.978;13.720;2023-08-12T11:21:40;98440.75;;;26.57;49.94
34979;BME280;21185;50.978;13.720;2023-08-12T11:26:42;98447.69;;;26.63;49.41
34979;BME280;21185;50.978;13.720;2023-08-12T11:31:46;98438.41;;;26.70;49.18
34979;BME280;21185;50.978;13.720;2023-08-12T11:36:48;98430.72;;;26.84;49.26
34979;BME280;21185;50.978;13.720;2023-08-12T11:41:51;98422.47;;;26.96;49.41
34979;BME280;21185;50.978;13.720;2023-08-12T11:46:54;98422.22;;;26.92;49.24
34979;BME280;21185;50.978;13.720;2023-08-12T11:51:56;98417.94;;;26.86;49.42
34979;BME280;21185;50.978;13.720;2023-08-12T11:56:58;98421.41;;;26.92;49.92
34979;BME280;21185;50.978;13.720;2023-08-12T12:02:02;98420.38;;;26.98;48.93
34979;BME280;21185;50.978;13.720;2023-08-12T12:07:17;98421.47;;;27.07;48.98
34979;BME280;21185;50.978;13.720;2023-08-12T12:12:24;98413.47;;;27.07;49.46
34979;BME280;21185;50.978;13.720;2023-08-12T12:17:26;98412.41;;;27.13;49.72
34979;BME280;21185;50.978;13.720;2023-08-12T12:22:29;98411.88;;;27.26;49.91
34979;BME280;21185;50.978;13.720;2023-08-12T12:27:32;98416.94;;;27.33;49.31
34979;BME280;21185;50.978;13.720;2023-08-12T12:32:34;98411.34;;;27.34;49.26
34979;BME280;21185;50.978;13.720;2023-08-12T12:37:37;98408.41;;;27.31;49.59
34979;BME280;21185;50.978;13.720;2023-08-12T12:42:39;98410.81;;;27.32;49.81
34979;BME280;21185;50.978;13.720;2023-08-12T12:47:41;98401.75;;;27.43;50.10
34979;BME280;21185;50.978;13.720;2023-08-12T12:52:43;98397.75;;;27.51;49.74
34979;BME280;21185;50.978;13.720;2023-08-12T12:57:46;98393.75;;;27.49;49.85
34979;BME280;21185;50.978;13.720;2023-08-12T13:02:48;98383.63;;;27.61;49.82
34979;BME280;21185;50.978;13.720;2023-08-12T13:07:50;98376.41;;;27.71;49.05
34979;BME280;21185;50.978;13.720;2023-08-12T13:12:52;98364.44;;;27.64;48.53
34979;BME280;21185;50.978;13.720;2023-08-12T13:17:54;98358.28;;;27.58;48.23
34979;BME280;21185;50.978;13.720;2023-08-12T13:22:57;98359.34;;;27.57;48.04
34979;BME280;21185;50.978;13.720;2023-08-12T13:28:03;98354.28;;;27.66;48.16
34979;BME280;21185;50.978;13.720;2023-08-12T13:33:05;98348.66;;;27.78;47.86
34979;BME280;21185;50.978;13.720;2023-08-12T13:38:07;98346.25;;;27.81;48.16
34979;BME280;21185;50.978;13.720;2023-08-12T13:43:09;98336.94;;;27.79;48.16
34979;BME280;21185;50.978;13.720;2023-08-12T13:48:11;98339.59;;;27.79;48.50
34979;BME280;21185;50.978;13.720;2023-08-12T13:53:13;98331.06;;;27.77;48.53
34979;BME280;21185;50.978;13.720;2023-08-12T13:58:15;98337.47;;;27.70;48.40
34979;BME280;21185;50.978;13.720;2023-08-12T14:03:18;98334.81;;;27.76;48.07
34979;BME280;21185;50.978;13.720;2023-08-12T14:08:20;98338.78;;;27.83;48.31
34979;BME280;21185;50.978;13.720;2023-08-12T14:13:22;98331.28;;;27.90;47.97
34979;BME280;21185;50.978;13.720;2023-08-12T14:18:24;98329.09;;;28.02;48.21
34979;BME280;21185;50.978;13.720;2023-08-12T14:23:29;98324.00;;;28.06;47.94
34979;BME280;21185;50.978;13.720;2023-08-12T14:28:31;98324.59;;;27.93;48.12
34979;BME280;21185;50.978;13.720;2023-08-12T14:33:34;98320.13;;;27.78;47.84
34979;BME280;21185;50.978;13.720;2023-08-12T14:38:36;98320.97;;;27.68;48.06
34979;BME280;21185;50.978;13.720;2023-08-12T14:43:38;98307.13;;;27.61;47.98
34979;BME280;21185;50.978;13.720;2023-08-12T14:48:40;98301.00;;;27.61;48.12
34979;BME280;21185;50.978;13.720;2023-08-12T14:53:42;98284.66;;;27.78;47.65
34979;BME280;21185;50.978;13.720;2023-08-12T14:58:48;98277.97;;;27.85;47.85
34979;BME280;21185;50.978;13.720;2023-08-12T15:03:51;98269.16;;;27.85;47.79
34979;BME280;21185;50.978;13.720;2023-08-12T15:08:54;98267.88;;;27.77;47.99
34979;BME280;21185;50.978;13.720;2023-08-12T15:13:56;98268.97;;;27.71;48.17
34979;BME280;21185;50.978;13.720;2023-08-12T15:18:58;98261.66;;;27.97;48.29
34979;BME280;21185;50.978;13.720;2023-08-12T15:24:00;98274.91;;;28.12;48.33
34979;BME280;21185;50.978;13.720;2023-08-12T15:29:02;98260.97;;;28.20;48.44
34979;BME280;21185;50.978;13.720;2023-08-12T15:34:05;98257.22;;;28.21;48.48
34979;BME280;21185;50.978;13.720;2023-08-12T15:39:07;98254.09;;;28.09;48.22
34979;BME280;21185;50.978;13.720;2023-08-12T15:44:10;98259.25;;;27.95;48.45
34979;BME280;21185;50.978;13.720;2023-08-12T15:49:13;98256.38;;;27.87;48.57
34979;BME280;21185;50.978;13.720;2023-08-12T15:54:15;98251.06;;;27.82;48.52
34979;BME280;21185;50.978;13.720;2023-08-12T15:59:17;98244.13;;;27.81;48.94
34979;BME280;21185;50.978;13.720;2023-08-12T16:04:22;98242.00;;;27.78;48.82
34979;BME280;21185;50.978;13.720;2023-08-12T16:09:24;98242.59;;;27.69;49.14
34979;BME280;21185;50.978;13.720;2023-08-12T16:14:26;98252.22;;;27.60;48.72
34979;BME280;21185;50.978;13.720;2023-08-12T16:19:28;98250.63;;;27.49;49.02
34979;BME280;21185;50.978;13.720;2023-08-12T16:24:31;98248.53;;;27.41;49.00
34979;BME280;21185;50.978;13.720;2023-08-12T16:29:33;98254.41;;;27.38;48.69
34979;BME280;21185;50.978;13.720;2023-08-12T16:34:36;98260.53;;;27.33;48.76
34979;BME280;21185;50.978;13.720;2023-08-12T16:39:38;98261.09;;;27.30;48.70
34979;BME280;21185;50.978;13.720;2023-08-12T16:44:40;98273.06;;;27.28;48.62
34979;BME280;21185;50.978;13.720;2023-08-12T16:49:42;98386.03;;;27.27;48.02
34979;BME280;21185;50.978;13.720;2023-08-12T16:54:44;98397.75;;;27.00;50.28
34979;BME280;21185;50.978;13.720;2023-08-12T16:59:47;98405.09;;;26.53;54.06
34979;BME280;21185;50.978;13.720;2023-08-12T17:04:49;98426.69;;;25.99;57.99
34979;BME280;21185;50.978;13.720;2023-08-12T17:09:51;98424.69;;;25.42;61.36
34979;BME280;21185;50.978;13.720;2023-08-12T17:14:53;98424.84;;;24.98;63.78
34979;BME280;21185;50.978;13.720;2023-08-12T17:19:55;98420.75;;;24.64;65.34
34979;BME280;21185;50.978;13.720;2023-08-12T17:24:57;98410.97;;;24.42;65.84
34979;BME280;21185;50.978;13.720;2023-08-12T17:29:59;98400.19;;;24.27;66.05
34979;BME280;21185;50.978;13.720;2023-08-12T17:35:01;98380.69;;;24.16;66.37
34979;BME280;21185;50.978;13.720;2023-08-12T17:40:06;98356.22;;;24.09;66.20
34979;BME280;21185;50.978;13.720;2023-08-12T17:45:08;98343.69;;;24.05;66.26
34979;BME280;21185;50.978;13.720;2023-08-12T17:50:11;98332.22;;;23.99;66.15
34979;BME280;21185;50.978;13.720;2023-08-12T17:55:15;98326.63;;;23.96;66.47
34979;BME280;21185;50.978;13.720;2023-08-12T18:00:17;98303.81;;;23.95;65.75
34979;BME280;21185;50.978;13.720;2023-08-12T18:05:21;98298.53;;;23.95;65.78
34979;BME280;21185;50.978;13.720;2023-08-12T18:10:24;98303.25;;;23.93;65.70
34979;BME280;21185;50.978;13.720;2023-08-12T18:15:28;98291.06;;;23.92;65.45
34979;BME280;21185;50.978;13.720;2023-08-12T18:20:30;98300.06;;;23.90;65.38
34979;BME280;21185;50.978;13.720;2023-08-12T18:25:32;98320.47;;;23.90;65.59
34979;BME280;21185;50.978;13.720;2023-08-12T18:30:34;98337.66;;;23.87;65.74
34979;BME280;21185;50.978;13.720;2023-08-12T18:35:36;98333.28;;;23.76;66.67
34979;BME280;21185;50.978;13.720;2023-08-12T18:40:38;98340.84;;;23.68;67.01
34979;BME280;21185;50.978;13.720;2023-08-12T18:45:40;98355.56;;;23.58;67.70
34979;BME280;21185;50.978;13.720;2023-08-12T18:50:42;98352.72;;;23.48;68.25
34979;BME280;21185;50.978;13.720;2023-08-12T18:55:44;98361.88;;;23.41;68.80
34979;BME280;21185;50.978;13.720;2023-08-12T19:00:47;98350.09;;;23.32;69.48
34979;BME280;21185;50.978;13.720;2023-08-12T19:05:59;98352.13;;;23.24;69.77
34979;BME280;21185;50.978;13.720;2023-08-12T19:11:01;98361.59;;;23.20;69.82
34979;BME280;21185;50.978;13.720;2023-08-12T19:16:03;98357.25;;;23.14;69.28
34979;BME280;21185;50.978;13.720;2023-08-12T19:21:05;98358.53;;;23.12;68.96
34979;BME280;21185;50.978;13.720;2023-08-12T19:26:08;98355.09;;;23.11;68.89
34979;BME280;21185;50.978;13.720;2023-08-12T19:31:11;98355.09;;;23.11;68.04
34979;BME280;21185;50.978;13.720;2023-08-12T19:36:14;98351.41;;;23.12;68.02
34979;BME280;21185;50.978;13.720;2023-08-12T19:41:16;98346.66;;;23.14;67.20
34979;BME280;21185;50.978;13.720;2023-08-12T19:46:17;98356.78;;;23.17;66.89
34979;BME280;21185;50.978;13.720;2023-08-12T19:51:27;98364.78;;;23.22;66.22
34979;BME280;21185;50.978;13.720;2023-08-12T19:56:29;98361.66;;;23.25;65.84
34979;BME280;21185;50.978;13.720;2023-08-12T20:01:31;98361.19;;;23.29;65.29
34979;BME280;21185;50.978;13.720;2023-08-12T20:06:33;98367.03;;;23.31;64.94
34979;BME280;21185;50.978;13.720;2023-08-12T20:11:35;98371.28;;;23.32;64.90
34979;BME280;21185;50.978;13.720;2023-08-12T20:16:37;98374.72;;;23.32;64.30
34979;BME280;21185;50.978;13.720;2023-08-12T20:21:39;98370.72;;;23.30;64.55
34979;BME280;21185;50.978;13.720;2023-08-12T20:26:44;98375.22;;;23.29;64.13
34979;BME280;21185;50.978;13.720;2023-08-12T20:31:46;98378.09;;;23.27;63.67
34979;BME280;21185;50.978;13.720;2023-08-12T20:36:48;98377.31;;;23.27;63.46
34979;BME280;21185;50.978;13.720;2023-08-12T20:41:50;98374.91;;;23.25;63.28
34979;BME280;21185;50.978;13.720;2023-08-12T20:46:52;98384.94;;;23.23;63.33
34979;BME280;21185;50.978;13.720;2023-08-12T20:51:54;98385.16;;;23.22;62.99
34979;BME280;21185;50.978;13.720;2023-08-12T20:56:56;98398.63;;;23.20;62.54
34979;BME280;21185;50.978;13.720;2023-08-12T21:01:58;98399.44;;;23.21;62.75
34979;BME280;21185;50.978;13.720;2023-08-12T21:07:00;98401.28;;;23.20;62.21
34979;BME280;21185;50.978;13.720;2023-08-12T21:12:03;98393.34;;;23.20;62.37
34979;BME280;21185;50.978;13.720;2023-08-12T21:17:05;98402.31;;;23.19;62.30
34979;BME280;21185;50.978;13.720;2023-08-12T21:22:07;98397.50;;;23.16;61.94
34979;BME280;21185;50.978;13.720;2023-08-12T21:27:09;98396.72;;;23.16;62.30
34979;BME280;21185;50.978;13.720;2023-08-12T21:32:11;98397.75;;;23.15;62.15
34979;BME280;21185;50.978;13.720;2023-08-12T21:37:14;98393.25;;;23.15;62.03
34979;BME280;21185;50.978;13.720;2023-08-12T21:42:16;98401.19;;;23.15;62.02
34979;BME280;21185;50.978;13.720;2023-08-12T21:47:18;98395.34;;;23.13;62.41
34979;BME280;21185;50.978;13.720;2023-08-12T21:52:20;98408.59;;;23.13;62.03
34979;BME280;21185;50.978;13.720;2023-08-12T21:57:22;98400.88;;;23.12;62.58
34979;BME280;21185;50.978;13.720;2023-08-12T22:02:25;98403.19;;;23.08;62.64
34979;BME280;21185;50.978;13.720;2023-08-12T22:07:27;98400.00;;;23.06;62.32
34979;BME280;21185;50.978;13.720;2023-08-12T22:12:29;98405.53;;;23.05;62.39
34979;BME280;21185;50.978;13.720;2023-08-12T22:17:31;98412.09;;;23.02;62.85
34979;BME280;21185;50.978;13.720;2023-08-12T22:22:33;98421.56;;;22.98;62.69
34979;BME280;21185;50.978;13.720;2023-08-12T22:27:35;98423.63;;;22.96;62.95
34979;BME280;21185;50.978;13.720;2023-08-12T22:32:37;98423.31;;;22.92;62.71
34979;BME280;21185;50.978;13.720;2023-08-12T22:37:38;98433.91;;;22.92;62.73
34979;BME280;21185;50.978;13.720;2023-08-12T22:42:40;98438.16;;;22.93;62.75
34979;BME280;21185;50.978;13.720;2023-08-12T22:47:43;98439.75;;;22.94;62.79
34979;BME280;21185;50.978;13.720;2023-08-12T22:52:44;98440.31;;;22.97;62.75
34979;BME280;21185;50.978;13.720;2023-08-12T22:57:46;98437.09;;;22.94;63.01
34979;BME280;21185;50.978;13.720;2023-08-12T23:02:48;98438.72;;;22.96;63.18
34979;BME280;21185;50.978;13.720;2023-08-12T23:07:50;98437.91;;;22.95;62.86
34979;BME280;21185;50.978;13.720;2023-08-12T23:12:52;98437.91;;;22.95;62.94
34979;BME280;21185;50.978;13.720;2023-08-12T23:17:54;98440.78;;;22.93;63.03
34979;BME280;21185;50.978;13.720;2023-08-12T23:22:56;98443.69;;;22.92;63.19
34979;BME280;21185;50.978;13.720;2023-08-12T23:27:58;98442.53;;;22.88;63.75
34979;BME280;21185;50.978;13.720;2023-08-12T23:33:00;98447.75;;;22.83;63.59
34979;BME280;21185;50.978;13.720;2023-08-12T23:38:01;98452.09;;;22.77;64.16
34979;BME280;21185;50.978;13.720;2023-08-12T23:43:03;98451.22;;;22.72;64.30
34979;BME280;21185;50.978;13.720;2023-08-12T23:48:06;98459.84;;;22.67;64.80
34979;BME280;21185;50.978;13.720;2023-08-12T23:53:08;98450.22;;;22.61;64.91
34979;BME280;21185;50.978;13.720;2023-08-12T23:58:10;98447.22;;;22.57;65.09
